createdAt,value
2017-08-09T00:01:20.596Z,17.80
2017-08-09T00:03:46.608Z,17.80
2017-08-09T00:06:12.636Z,17.80
2017-08-09T00:08:38.657Z,17.80
2017-08-09T00:11:04.681Z,17.70
2017-08-09T00:13:31.445Z,17.70
2017-08-09T00:15:57.460Z,17.70
2017-08-09T00:18:23.498Z,17.70
2017-08-09T00:20:49.537Z,17.70
2017-08-09T00:23:16.309Z,17.70
2017-08-09T00:25:42.346Z,17.60
2017-08-09T00:28:08.373Z,17.60
2017-08-09T00:30:35.130Z,17.60
2017-08-09T00:33:01.188Z,17.60
2017-08-09T00:35:27.225Z,17.70
2017-08-09T00:37:54.009Z,17.60
2017-08-09T00:40:20.045Z,17.60
2017-08-09T00:42:46.841Z,17.50
2017-08-09T00:45:12.903Z,17.50
2017-08-09T00:47:38.942Z,17.60
2017-08-09T00:50:04.976Z,17.60
2017-08-09T00:52:31.017Z,17.60
2017-08-09T00:54:57.094Z,17.60
2017-08-09T00:57:23.132Z,17.60
2017-08-09T00:59:49.166Z,17.60
2017-08-09T01:02:15.236Z,17.50
2017-08-09T01:04:41.289Z,17.40
2017-08-09T01:07:07.325Z,17.30
2017-08-09T01:09:33.360Z,17.20
2017-08-09T01:11:59.409Z,17.20
2017-08-09T01:14:25.437Z,17.10
2017-08-09T01:16:51.485Z,17.00
2017-08-09T01:19:17.541Z,17.10
2017-08-09T01:21:43.577Z,17.10
2017-08-09T01:24:09.609Z,17.00
2017-08-09T01:26:35.625Z,17.00
2017-08-09T01:29:01.689Z,17.10
2017-08-09T01:31:27.725Z,17.10
2017-08-09T01:33:53.768Z,17.10
2017-08-09T01:36:19.814Z,17.10
2017-08-09T01:38:45.885Z,17.00
2017-08-09T01:41:26.919Z,16.90
2017-08-09T01:43:52.945Z,16.90
2017-08-09T01:46:19.078Z,16.90
2017-08-09T01:48:45.096Z,16.90
2017-08-09T01:51:11.140Z,16.80
2017-08-09T01:53:37.193Z,16.80
2017-08-09T01:56:03.984Z,16.60
2017-08-09T01:58:30.008Z,16.60
2017-08-09T02:00:56.064Z,16.60
2017-08-09T02:03:22.141Z,16.60
2017-08-09T02:05:48.345Z,16.70
2017-08-09T02:08:15.217Z,16.70
2017-08-09T02:10:41.253Z,16.70
2017-08-09T02:13:07.406Z,16.70
2017-08-09T02:15:33.432Z,16.80
2017-08-09T02:17:59.468Z,16.80
2017-08-09T02:20:25.698Z,16.90
2017-08-09T02:22:51.790Z,16.90
2017-08-09T02:25:17.805Z,16.80
2017-08-09T02:27:43.860Z,16.80
2017-08-09T02:30:10.653Z,16.70
2017-08-09T02:32:36.684Z,16.60
2017-08-09T02:35:02.704Z,16.60
2017-08-09T02:37:29.477Z,16.50
2017-08-09T02:39:55.505Z,16.50
2017-08-09T02:42:21.509Z,16.50
2017-08-09T02:44:47.561Z,16.40
2017-08-09T02:47:13.562Z,16.40
2017-08-09T02:49:39.574Z,16.40
2017-08-09T02:52:06.344Z,16.40
2017-08-09T02:54:32.407Z,16.30
2017-08-09T02:56:58.447Z,16.40
2017-08-09T02:59:24.461Z,16.40
2017-08-09T03:01:50.485Z,16.40
2017-08-09T03:04:16.493Z,16.40
2017-08-09T03:06:42.528Z,16.30
2017-08-09T03:09:08.570Z,16.30
2017-08-09T03:11:34.584Z,16.30
2017-08-09T03:14:00.609Z,16.30
2017-08-09T03:16:26.632Z,16.30
2017-08-09T03:18:52.661Z,16.20
2017-08-09T03:21:25.636Z,16.20
2017-08-09T03:23:51.657Z,16.20
2017-08-09T03:26:17.705Z,16.10
2017-08-09T03:28:43.724Z,16.20
2017-08-09T03:31:09.818Z,16.20
2017-08-09T03:33:35.840Z,16.20
2017-08-09T03:36:01.873Z,16.20
2017-08-09T03:38:27.892Z,16.20
2017-08-09T03:41:00.805Z,16.20
2017-08-09T03:43:26.857Z,16.10
2017-08-09T03:45:52.870Z,16.10
2017-08-09T03:48:18.892Z,16.20
2017-08-09T03:50:44.931Z,16.20
2017-08-09T03:53:10.956Z,16.10
2017-08-09T03:55:36.991Z,16.20
2017-08-09T03:58:03.044Z,16.10
2017-08-09T04:00:29.065Z,16.10
2017-08-09T04:02:55.836Z,16.10
2017-08-09T04:05:21.880Z,16.10
2017-08-09T04:07:47.905Z,16.20
2017-08-09T04:10:13.916Z,16.20
2017-08-09T04:12:40.783Z,16.00
2017-08-09T04:15:06.817Z,16.00
2017-08-09T04:17:32.862Z,15.90
2017-08-09T04:19:58.906Z,15.90
2017-08-09T04:22:24.969Z,15.80
2017-08-09T04:24:51.013Z,15.70
2017-08-09T04:27:17.073Z,15.60
2017-08-09T04:29:43.114Z,15.50
2017-08-09T04:32:09.157Z,15.50
2017-08-09T04:34:35.212Z,15.50
2017-08-09T04:37:01.254Z,15.50
2017-08-09T04:39:27.296Z,15.50
2017-08-09T04:41:53.323Z,15.40
2017-08-09T04:44:19.351Z,15.40
2017-08-09T04:46:45.368Z,15.30
2017-08-09T04:49:12.137Z,15.30
2017-08-09T04:51:38.157Z,15.30
2017-08-09T04:54:04.182Z,15.30
2017-08-09T04:56:30.230Z,15.20
2017-08-09T04:58:56.252Z,15.30
2017-08-09T05:01:22.278Z,15.30
2017-08-09T05:03:48.285Z,15.30
2017-08-09T05:06:14.315Z,15.30
2017-08-09T05:08:40.324Z,15.30
2017-08-09T05:11:06.346Z,15.30
2017-08-09T05:13:32.393Z,15.30
2017-08-09T05:15:58.413Z,15.30
2017-08-09T05:18:24.484Z,15.30
2017-08-09T05:20:50.592Z,15.30
2017-08-09T05:23:16.740Z,15.40
2017-08-09T05:25:42.812Z,15.40
2017-08-09T05:28:08.826Z,15.40
2017-08-09T05:30:34.841Z,15.30
2017-08-09T05:33:00.979Z,15.30
2017-08-09T05:35:26.977Z,15.30
2017-08-09T05:37:53.076Z,15.40
2017-08-09T05:40:19.856Z,15.50
2017-08-09T05:42:45.896Z,15.50
2017-08-09T05:45:12.025Z,15.60
2017-08-09T05:47:38.165Z,15.60
2017-08-09T05:50:04.205Z,15.60
2017-08-09T05:52:30.236Z,15.70
2017-08-09T05:54:56.285Z,15.70
2017-08-09T05:57:22.333Z,15.60
2017-08-09T05:59:48.498Z,15.70
2017-08-09T06:02:14.545Z,15.70
2017-08-09T06:04:40.604Z,15.80
2017-08-09T06:07:06.696Z,15.90
2017-08-09T06:09:33.512Z,15.90
2017-08-09T06:11:59.548Z,15.90
2017-08-09T06:14:25.690Z,16.00
2017-08-09T06:16:51.780Z,16.20
2017-08-09T06:19:17.960Z,16.20
2017-08-09T06:21:44.749Z,16.30
2017-08-09T06:24:10.774Z,16.30
2017-08-09T06:26:36.816Z,16.40
2017-08-09T06:29:02.866Z,16.40
2017-08-09T06:31:28.913Z,16.30
2017-08-09T06:33:54.930Z,16.40
2017-08-09T06:36:20.948Z,16.50
2017-08-09T06:38:47.008Z,16.60
2017-08-09T06:41:13.049Z,16.60
2017-08-09T06:43:39.192Z,16.60
2017-08-09T06:46:05.232Z,16.70
2017-08-09T06:48:31.313Z,16.80
2017-08-09T06:50:57.369Z,16.90
2017-08-09T06:53:23.422Z,17.00
2017-08-09T06:55:49.460Z,17.10
2017-08-09T06:58:15.485Z,17.20
2017-08-09T07:00:41.528Z,17.30
2017-08-09T07:03:07.557Z,17.40
2017-08-09T07:05:33.590Z,17.40
2017-08-09T07:07:59.624Z,17.40
2017-08-09T07:10:25.653Z,17.50
2017-08-09T07:12:51.695Z,17.60
2017-08-09T07:15:17.726Z,17.60
2017-08-09T07:17:43.753Z,17.60
2017-08-09T07:20:09.795Z,17.70
2017-08-09T07:22:35.840Z,17.70
2017-08-09T07:25:01.883Z,17.80
2017-08-09T07:27:27.949Z,17.90
2017-08-09T07:29:53.989Z,17.90
2017-08-09T07:32:20.039Z,18.00
2017-08-09T07:34:46.813Z,18.10
2017-08-09T07:37:12.880Z,18.10
2017-08-09T07:39:38.912Z,18.10
2017-08-09T07:42:04.928Z,18.20
2017-08-09T07:44:30.961Z,18.30
2017-08-09T07:46:56.981Z,18.50
2017-08-09T07:49:23.010Z,18.50
2017-08-09T07:51:49.033Z,18.60
2017-08-09T07:54:15.067Z,18.60
2017-08-09T07:56:41.090Z,18.70
2017-08-09T07:59:07.130Z,18.80
2017-08-09T08:01:33.157Z,18.90
2017-08-09T08:03:59.190Z,19.00
2017-08-09T08:06:26.069Z,19.20
2017-08-09T08:08:52.131Z,19.20
2017-08-09T08:11:18.245Z,19.20
2017-08-09T08:13:45.000Z,19.30
2017-08-09T08:16:11.020Z,19.30
2017-08-09T08:18:37.040Z,19.30
2017-08-09T08:21:03.093Z,19.50
2017-08-09T08:23:29.113Z,19.70
2017-08-09T08:25:55.138Z,19.90
2017-08-09T08:28:21.153Z,19.90
2017-08-09T08:30:47.192Z,20.00
2017-08-09T08:33:13.225Z,20.10
2017-08-09T08:35:39.294Z,20.20
2017-08-09T08:38:05.315Z,20.20
2017-08-09T08:40:31.364Z,20.30
2017-08-09T09:42:06.022Z,20.60
2017-08-09T09:44:32.075Z,23.00
2017-08-09T09:46:58.109Z,22.50
2017-08-09T09:49:24.161Z,21.80
2017-08-09T09:51:50.185Z,21.50
2017-08-09T09:54:16.208Z,21.50
2017-08-09T09:56:49.104Z,21.30
2017-08-09T09:59:15.122Z,21.20
2017-08-09T10:01:41.150Z,21.20
2017-08-09T10:04:07.161Z,22.20
2017-08-09T10:06:33.200Z,22.70
2017-08-09T10:08:59.228Z,22.80
2017-08-09T10:11:25.251Z,23.00
2017-08-09T10:18:47.637Z,23.20
2017-08-09T10:21:13.648Z,23.10
2017-08-09T10:23:39.660Z,22.90
2017-08-09T10:26:05.697Z,22.70
2017-08-09T10:28:32.470Z,22.40
2017-08-09T10:30:58.496Z,22.40
2017-08-09T10:33:25.388Z,22.40
2017-08-09T10:35:51.392Z,22.30
2017-08-09T10:38:18.132Z,22.60
2017-08-09T10:40:44.157Z,22.60
2017-08-09T11:10:26.164Z,21.90
2017-08-09T11:12:52.196Z,21.80
2017-08-09T11:15:18.973Z,22.10
2017-08-09T11:17:44.993Z,22.10
2017-08-09T11:20:11.029Z,22.90
2017-08-09T14:52:17.352Z,23.00
2017-08-09T14:54:43.393Z,28.30
2017-08-09T15:26:43.092Z,28.60
2017-08-09T15:29:09.129Z,28.00
2017-08-09T15:31:35.889Z,26.80
2017-08-09T15:34:01.966Z,26.70
2017-08-09T15:36:28.005Z,26.50
2017-08-09T15:38:54.033Z,26.70
2017-08-09T15:41:20.053Z,26.30
2017-08-09T15:43:46.085Z,27.00
2017-08-09T15:46:12.845Z,27.40
2017-08-09T15:48:38.865Z,27.40
2017-08-09T15:51:04.864Z,27.30
